createdAt,value
2017-11-08T00:00:35.827Z,5.80
2017-11-08T00:04:05.281Z,5.80
2017-11-08T00:07:32.293Z,5.30
2017-11-08T00:10:59.460Z,4.93
2017-11-08T00:14:29.453Z,5.70
2017-11-08T00:17:55.826Z,6.73
2017-11-08T00:21:46.414Z,5.77
2017-11-08T00:25:12.461Z,5.50
2017-11-08T00:28:38.599Z,5.33
2017-11-08T00:32:06.288Z,5.50
2017-11-08T00:35:33.252Z,4.70
2017-11-08T00:38:59.413Z,5.50
2017-11-08T00:42:26.181Z,5.50
2017-11-08T00:45:52.816Z,5.90
2017-11-08T00:49:19.264Z,5.80
2017-11-08T00:52:49.438Z,5.80
2017-11-08T00:56:16.587Z,6.37
2017-11-08T00:59:44.048Z,5.60
2017-11-08T01:03:11.132Z,5.30
2017-11-08T01:06:37.064Z,5.53
2017-11-08T01:10:03.963Z,6.10
2017-11-08T01:13:30.643Z,5.47
2017-11-08T01:16:57.165Z,5.47
2017-11-08T01:20:24.735Z,5.27
2017-11-08T01:23:54.730Z,5.83
2017-11-08T01:27:22.105Z,5.53
2017-11-08T01:30:48.640Z,6.20
2017-11-08T01:34:16.500Z,6.30
2017-11-08T01:37:48.656Z,5.60
2017-11-08T01:41:20.017Z,6.73
2017-11-08T01:44:50.155Z,5.90
2017-11-08T01:48:17.219Z,5.53
2017-11-08T01:51:53.487Z,5.77
2017-11-08T01:55:24.496Z,5.63
2017-11-08T01:58:52.256Z,5.30
2017-11-08T02:02:19.045Z,5.70
2017-11-08T02:05:45.248Z,5.93
2017-11-08T02:09:11.311Z,5.13
2017-11-08T02:12:46.370Z,6.10
2017-11-08T02:16:15.839Z,5.73
2017-11-08T02:33:49.048Z,5.67
2017-11-08T02:37:15.024Z,6.50
2017-11-08T02:40:41.924Z,6.30
2017-11-08T02:44:07.994Z,5.63
2017-11-08T02:47:41.014Z,5.53
2017-11-08T02:51:09.368Z,5.10
2017-11-08T02:54:43.054Z,6.27
2017-11-08T02:58:12.219Z,5.17
2017-11-08T03:01:44.807Z,5.20
2017-11-08T03:05:21.001Z,4.80
2017-11-08T03:08:49.912Z,5.60
2017-11-08T03:12:17.488Z,5.90
2017-11-08T03:15:43.628Z,6.17
2017-11-08T03:19:11.375Z,5.10
2017-11-08T03:22:37.755Z,4.80
2017-11-08T03:26:03.971Z,5.40
2017-11-08T03:29:32.221Z,4.93
2017-11-08T03:32:58.277Z,5.80
2017-11-08T03:36:25.657Z,5.00
2017-11-08T03:39:52.312Z,5.20
2017-11-08T03:43:18.604Z,5.17
2017-11-08T03:46:44.498Z,5.20
2017-11-08T03:50:11.400Z,5.43
2017-11-08T03:53:37.575Z,5.40
2017-11-08T03:57:03.879Z,5.50
2017-11-08T04:00:30.863Z,5.63
2017-11-08T04:03:57.084Z,5.90
2017-11-08T04:07:23.228Z,4.50
2017-11-08T04:10:51.887Z,5.83
2017-11-08T04:14:17.971Z,5.90
2017-11-08T04:17:44.839Z,6.07
2017-11-08T04:21:11.384Z,4.80
2017-11-08T04:24:37.885Z,5.50
2017-11-08T04:28:05.413Z,5.60
2017-11-08T04:31:32.784Z,5.17
2017-11-08T04:34:59.100Z,5.80
2017-11-08T04:38:25.748Z,5.50
2017-11-08T04:41:52.649Z,4.20
2017-11-08T04:45:19.133Z,5.17
2017-11-08T04:48:46.024Z,5.57
2017-11-08T04:52:12.523Z,5.83
2017-11-08T04:55:43.300Z,4.70
2017-11-08T04:59:10.285Z,4.80
2017-11-08T05:02:36.446Z,4.40
2017-11-08T05:06:06.973Z,5.50
2017-11-08T05:09:32.952Z,5.50
2017-11-08T05:12:59.223Z,4.57
2017-11-08T05:16:25.845Z,4.60
2017-11-08T05:19:52.477Z,4.70
2017-11-08T05:23:28.757Z,5.20
2017-11-08T05:26:57.113Z,4.97
2017-11-08T05:30:25.543Z,4.83
2017-11-08T05:33:53.192Z,4.07
2017-11-08T05:37:19.253Z,5.00
2017-11-08T05:40:45.441Z,4.40
2017-11-08T05:44:12.014Z,4.60
2017-11-08T05:47:38.548Z,3.83
2017-11-08T05:51:04.695Z,4.37
2017-11-08T05:54:31.567Z,4.60
2017-11-08T05:57:58.103Z,4.47
2017-11-08T06:01:34.506Z,4.50
2017-11-08T06:05:01.135Z,4.30
2017-11-08T06:08:27.024Z,4.57
2017-11-08T06:11:59.888Z,4.43
2017-11-08T06:15:34.220Z,3.80
2017-11-08T06:19:00.057Z,4.03
2017-11-08T06:22:29.967Z,3.90
2017-11-08T06:25:57.401Z,3.93
2017-11-08T06:29:23.821Z,4.70
2017-11-08T06:32:54.800Z,4.10
2017-11-08T06:36:22.063Z,4.43
2017-11-08T06:39:49.991Z,3.77
2017-11-08T06:43:20.600Z,4.53
2017-11-08T06:46:46.719Z,15.00
2017-11-08T06:50:12.724Z,5.00
2017-11-08T06:53:43.196Z,4.60
2017-11-08T06:57:12.564Z,4.30
2017-11-08T07:00:38.388Z,4.03
2017-11-08T07:04:09.042Z,4.20
2017-11-08T07:07:38.003Z,4.40
2017-11-08T07:11:03.969Z,4.40
2017-11-08T07:14:31.270Z,4.43
2017-11-08T07:17:57.910Z,4.70
2017-11-08T07:21:30.102Z,5.03
2017-11-08T07:24:57.588Z,4.93
2017-11-08T07:28:23.706Z,4.20
2017-11-08T07:31:51.792Z,5.50
2017-11-08T07:35:22.332Z,5.20
2017-11-08T07:38:56.524Z,6.17
2017-11-08T07:42:33.318Z,5.10
2017-11-08T07:45:59.343Z,6.20
2017-11-08T07:49:26.041Z,5.80
2017-11-08T07:52:52.544Z,5.60
2017-11-08T07:56:23.545Z,6.00
2017-11-08T08:00:00.480Z,5.90
2017-11-08T08:03:27.149Z,5.97
2017-11-08T08:06:55.348Z,5.67
2017-11-08T08:10:29.423Z,5.50
2017-11-08T08:13:59.940Z,6.30
2017-11-08T08:17:34.683Z,5.90
2017-11-08T08:21:00.636Z,5.10
2017-11-08T08:24:27.067Z,5.40
2017-11-08T08:27:57.400Z,5.60
2017-11-08T08:31:24.003Z,4.90
2017-11-08T08:34:51.233Z,5.27
2017-11-08T08:38:21.131Z,5.37
2017-11-08T08:41:47.241Z,6.00
2017-11-08T08:45:13.068Z,5.80
2017-11-08T08:48:53.166Z,5.10
2017-11-08T08:52:25.622Z,5.63
2017-11-08T08:56:06.204Z,5.70
2017-11-08T08:59:32.629Z,5.30
2017-11-08T09:02:59.360Z,5.53
2017-11-08T09:06:25.662Z,5.60
2017-11-08T09:09:53.509Z,6.73
2017-11-08T09:13:20.607Z,5.80
2017-11-08T09:16:48.672Z,5.93
2017-11-08T09:20:14.800Z,5.50
2017-11-08T09:23:48.665Z,5.87
2017-11-08T09:30:53.724Z,8.13
2017-11-08T09:34:26.026Z,7.57
2017-11-08T09:37:59.332Z,10.30
2017-11-08T09:41:34.650Z,11.23
2017-11-08T09:45:01.278Z,12.10
2017-11-08T09:48:27.294Z,11.70
2017-11-08T09:51:54.456Z,12.67
2017-11-08T09:55:20.508Z,12.40
2017-11-08T09:58:46.505Z,12.77
2017-11-08T10:02:14.916Z,15.33
2017-11-08T10:05:40.797Z,14.73
2017-11-08T10:09:07.555Z,14.77
2017-11-08T10:12:33.856Z,15.20
2017-11-08T10:16:00.577Z,15.20
2017-11-08T10:19:32.962Z,15.07
2017-11-08T10:23:03.890Z,15.23
2017-11-08T10:26:30.903Z,15.40
2017-11-08T10:29:57.236Z,16.43
2017-11-08T10:33:28.693Z,17.53
2017-11-08T10:36:54.605Z,16.93
2017-11-08T10:40:25.464Z,18.53
2017-11-08T10:43:52.081Z,18.87
2017-11-08T10:47:18.808Z,18.43
2017-11-08T10:50:46.607Z,18.37
2017-11-08T10:54:13.584Z,17.70
2017-11-08T10:57:42.337Z,18.93
2017-11-08T11:01:09.273Z,17.47
2017-11-08T11:04:35.713Z,18.47
2017-11-08T11:08:02.818Z,17.17
2017-11-08T11:11:30.531Z,17.30
2017-11-08T11:14:59.045Z,16.50
2017-11-08T11:18:26.723Z,14.53
2017-11-08T11:25:31.524Z,12.53
2017-11-08T11:29:00.040Z,12.83
2017-11-08T11:32:32.447Z,13.10
2017-11-08T11:39:45.851Z,11.40
2017-11-08T11:46:47.636Z,10.53
2017-11-08T11:53:49.368Z,11.87
2017-11-08T11:57:15.931Z,11.73
2017-11-08T12:00:42.957Z,11.57
2017-11-08T12:04:09.265Z,10.50
2017-11-08T12:07:52.208Z,10.63
2017-11-08T12:11:25.090Z,10.73
2017-11-08T12:14:52.087Z,9.53
2017-11-08T12:18:25.610Z,9.60
2017-11-08T12:21:53.347Z,11.33
2017-11-08T12:25:26.954Z,10.90
2017-11-08T12:29:00.199Z,10.17
2017-11-08T12:32:26.939Z,10.10
2017-11-08T12:35:58.014Z,10.10
2017-11-08T12:39:25.187Z,9.53
2017-11-08T12:43:03.219Z,9.60
2017-11-08T12:46:37.624Z,8.60
2017-11-08T12:50:04.178Z,9.93
2017-11-08T12:53:31.720Z,10.13
2017-11-08T12:56:58.026Z,9.83
2017-11-08T13:00:24.085Z,9.73
2017-11-08T13:03:55.139Z,10.30
2017-11-08T13:11:46.977Z,10.00
2017-11-08T13:15:13.068Z,9.73
2017-11-08T13:18:44.827Z,9.40
2017-11-08T13:25:45.918Z,10.17
2017-11-08T13:29:12.704Z,9.93
2017-11-08T13:32:39.025Z,10.37
2017-11-08T13:36:06.816Z,9.63
2017-11-08T13:39:33.559Z,9.67
2017-11-08T13:43:00.906Z,11.10
2017-11-08T13:46:31.527Z,9.10
2017-11-08T13:50:03.850Z,10.27
2017-11-08T13:53:30.793Z,10.43
2017-11-08T13:56:57.913Z,10.33
2017-11-08T14:00:24.719Z,10.20
2017-11-08T14:03:56.113Z,9.63
2017-11-08T14:07:24.216Z,10.37
2017-11-08T14:10:50.835Z,10.70
2017-11-08T14:14:19.563Z,10.50
2017-11-08T14:17:45.767Z,10.40
2017-11-08T14:21:20.853Z,10.03
2017-11-08T14:24:47.047Z,9.60
2017-11-08T14:28:13.932Z,9.90
2017-11-08T14:35:11.129Z,10.10
2017-11-08T14:38:38.809Z,9.20
2017-11-08T14:42:10.429Z,9.57
2017-11-08T14:45:39.366Z,8.77
2017-11-08T14:49:11.441Z,8.97
2017-11-08T14:52:42.314Z,9.97
2017-11-08T14:56:13.993Z,9.70
2017-11-08T14:59:41.500Z,10.43
2017-11-08T15:03:08.332Z,9.20
2017-11-08T15:06:34.364Z,10.10
2017-11-08T15:10:01.056Z,9.10
2017-11-08T15:13:28.433Z,9.93
2017-11-08T15:21:07.287Z,8.90
2017-11-08T15:24:34.075Z,9.53
2017-11-08T15:28:06.694Z,9.87
2017-11-08T15:31:32.927Z,10.00
2017-11-08T15:34:58.976Z,8.20
2017-11-08T15:38:30.111Z,10.20
2017-11-08T15:41:56.761Z,9.90
2017-11-08T15:45:23.752Z,9.10
2017-11-08T15:48:51.081Z,8.53
2017-11-08T15:52:17.289Z,9.00
2017-11-08T15:55:45.697Z,9.47
2017-11-08T15:59:17.961Z,9.17
2017-11-08T16:02:46.074Z,9.60
2017-11-08T16:06:13.678Z,9.57
2017-11-08T16:09:41.478Z,9.60
2017-11-08T16:13:12.700Z,9.30
2017-11-08T16:16:40.925Z,10.40
2017-11-08T16:20:15.143Z,10.73
2017-11-08T16:23:50.706Z,11.57
2017-11-08T16:27:18.250Z,11.00
2017-11-08T16:30:45.810Z,10.30
2017-11-08T16:34:12.531Z,10.40
2017-11-08T16:37:39.500Z,10.93
2017-11-08T16:41:13.935Z,10.33
2017-11-08T16:44:40.957Z,10.90
2017-11-08T16:48:13.629Z,9.97
2017-11-08T16:51:41.054Z,10.97
2017-11-08T16:55:08.476Z,10.93
2017-11-08T16:58:48.939Z,10.47
2017-11-08T17:02:15.385Z,12.17
2017-11-08T17:05:47.162Z,11.27
2017-11-08T17:09:15.409Z,11.43
2017-11-08T17:12:41.493Z,11.43
2017-11-08T17:16:09.422Z,11.20
2017-11-08T17:19:49.568Z,11.87
2017-11-08T17:26:49.250Z,11.60
2017-11-08T17:30:16.503Z,12.10
2017-11-08T17:33:43.779Z,11.23
2017-11-08T17:37:10.205Z,13.07
2017-11-08T17:44:07.932Z,11.57
2017-11-08T17:47:33.903Z,12.63
2017-11-08T17:51:00.244Z,11.97
2017-11-08T17:54:26.183Z,12.80
2017-11-08T17:57:52.914Z,12.63
2017-11-08T18:01:19.172Z,13.47
2017-11-08T18:04:45.880Z,15.33
2017-11-08T18:08:15.008Z,13.00
2017-11-08T18:11:41.797Z,13.57
2017-11-08T18:15:08.858Z,13.17
2017-11-08T18:18:35.635Z,14.07
2017-11-08T18:22:04.841Z,13.73
2017-11-08T18:25:35.658Z,13.30
2017-11-08T18:29:03.050Z,13.33
2017-11-08T18:32:29.085Z,14.17
2017-11-08T18:35:55.626Z,13.90
2017-11-08T18:39:23.049Z,13.63
2017-11-08T18:42:49.352Z,13.77
2017-11-08T18:46:26.622Z,13.27
2017-11-08T18:57:02.564Z,13.13
2017-11-08T19:00:33.838Z,12.70
2017-11-08T19:04:01.479Z,12.57
2017-11-08T19:07:29.754Z,14.57
2017-11-08T19:14:35.174Z,13.30
2017-11-08T19:18:02.822Z,14.33
2017-11-08T19:21:30.990Z,13.90
2017-11-08T19:25:01.149Z,14.07
2017-11-08T19:28:28.349Z,12.73
2017-11-08T19:35:26.645Z,13.80
2017-11-08T19:38:53.158Z,14.83
2017-11-08T19:42:20.505Z,12.70
2017-11-08T19:45:47.844Z,13.07
2017-11-08T19:49:14.428Z,12.87
2017-11-08T19:52:42.080Z,12.83
2017-11-08T19:56:10.098Z,12.47
2017-11-08T19:59:36.798Z,12.50
2017-11-08T20:03:13.589Z,12.73
2017-11-08T20:06:41.058Z,13.20
2017-11-08T20:10:08.616Z,14.40
2017-11-08T20:13:37.804Z,13.23
2017-11-08T20:17:06.415Z,13.37
2017-11-08T20:20:34.224Z,15.27
2017-11-08T20:24:00.975Z,13.80
2017-11-08T20:27:27.735Z,13.00
2017-11-08T20:30:58.594Z,13.60
2017-11-08T20:34:26.734Z,13.40
2017-11-08T20:38:05.319Z,14.60
2017-11-08T20:41:36.326Z,14.40
2017-11-08T20:45:05.591Z,13.43
2017-11-08T20:48:32.809Z,14.77
2017-11-08T20:52:00.416Z,14.20
2017-11-08T20:55:28.579Z,14.50
2017-11-08T20:58:55.691Z,14.03
2017-11-08T21:02:22.690Z,14.47
2017-11-08T21:05:49.278Z,14.57
2017-11-08T21:09:16.688Z,15.90
2017-11-08T21:12:43.638Z,14.50
2017-11-08T21:16:12.428Z,16.10
2017-11-08T21:19:38.784Z,15.90
2017-11-08T21:23:05.282Z,16.73
2017-11-08T21:26:32.301Z,15.03
2017-11-08T21:29:58.824Z,15.70
2017-11-08T21:33:25.856Z,16.33
2017-11-08T21:36:53.927Z,17.87
2017-11-08T21:40:20.163Z,16.20
2017-11-08T21:43:46.633Z,17.20
2017-11-08T21:47:13.311Z,17.13
2017-11-08T21:50:45.383Z,17.70
2017-11-08T21:54:12.184Z,16.00
2017-11-08T21:57:39.221Z,17.70
2017-11-08T22:01:05.996Z,15.93
2017-11-08T22:04:33.076Z,19.23
2017-11-08T22:07:59.409Z,16.40
2017-11-08T22:11:26.868Z,17.53
2017-11-08T22:14:53.731Z,19.00
2017-11-08T22:18:20.437Z,19.20
2017-11-08T22:21:46.993Z,19.00
2017-11-08T22:25:18.461Z,18.63
2017-11-08T22:28:45.681Z,18.20
2017-11-08T22:32:13.496Z,20.57
2017-11-08T22:35:40.501Z,19.77
2017-11-08T22:39:06.938Z,19.27
2017-11-08T22:42:34.925Z,20.37
2017-11-08T22:46:02.027Z,19.93
2017-11-08T22:49:28.938Z,19.40
2017-11-08T22:52:56.232Z,20.70
2017-11-08T22:56:23.497Z,19.17
2017-11-08T22:59:51.129Z,20.67
2017-11-08T23:03:18.181Z,20.80
2017-11-08T23:06:45.370Z,19.17
2017-11-08T23:10:11.985Z,20.73
2017-11-08T23:13:39.182Z,20.50
2017-11-08T23:17:05.894Z,20.80
2017-11-08T23:20:32.689Z,21.37
2017-11-08T23:23:59.390Z,22.07
2017-11-08T23:27:27.037Z,22.83
2017-11-08T23:30:53.457Z,20.97
2017-11-08T23:34:19.832Z,22.17
2017-11-08T23:37:46.934Z,21.87
2017-11-08T23:41:13.062Z,22.20
2017-11-08T23:44:42.164Z,23.10
2017-11-08T23:48:10.667Z,23.50
2017-11-08T23:51:36.951Z,21.93
2017-11-08T23:55:04.709Z,23.33
2017-11-08T23:58:32.286Z,21.67
